createdAt,value
2018-11-23T00:00:38.541Z,31.90
2018-11-23T00:03:07.714Z,33.77
2018-11-23T00:05:36.912Z,27.00
2018-11-23T00:08:06.435Z,32.77
2018-11-23T00:10:35.860Z,34.80
2018-11-23T00:13:05.708Z,38.17
2018-11-23T00:15:35.289Z,35.70
2018-11-23T00:18:07.121Z,38.70
2018-11-23T00:20:36.610Z,33.13
2018-11-23T00:23:06.571Z,37.13
2018-11-23T00:25:36.793Z,25.97
2018-11-23T00:28:06.544Z,32.07
2018-11-23T00:30:36.211Z,32.30
2018-11-23T00:33:05.631Z,36.03
2018-11-23T00:35:35.368Z,30.70
2018-11-23T00:38:04.769Z,35.50
2018-11-23T00:40:34.929Z,34.20
2018-11-23T00:43:05.034Z,32.20
2018-11-23T00:45:34.284Z,37.57
2018-11-23T00:48:04.127Z,32.93
2018-11-23T00:50:33.604Z,31.13
2018-11-23T00:53:03.178Z,35.73
2018-11-23T00:55:32.682Z,35.27
2018-11-23T00:58:02.597Z,36.83
2018-11-23T01:00:34.298Z,33.77
2018-11-23T01:03:05.340Z,37.93
2018-11-23T01:05:34.622Z,31.30
2018-11-23T01:08:04.129Z,34.00
2018-11-23T01:10:33.730Z,40.33
2018-11-23T01:13:03.025Z,31.07
2018-11-23T01:15:32.775Z,31.73
2018-11-23T01:18:02.672Z,35.87
2018-11-23T01:20:32.033Z,34.73
2018-11-23T01:23:01.533Z,30.60
2018-11-23T01:25:31.312Z,39.07
2018-11-23T01:28:01.156Z,38.33
2018-11-23T01:30:31.843Z,32.10
2018-11-23T01:33:01.315Z,36.63
2018-11-23T01:35:31.382Z,38.50
2018-11-23T01:38:00.963Z,30.30
2018-11-23T01:40:31.138Z,33.53
2018-11-23T01:43:00.924Z,35.37
2018-11-23T01:45:30.478Z,34.50
2018-11-23T01:47:59.868Z,34.63
2018-11-23T01:50:30.331Z,38.10
2018-11-23T01:53:00.052Z,27.90
2018-11-23T01:55:29.302Z,36.77
2018-11-23T01:57:58.923Z,37.50
2018-11-23T02:00:29.377Z,38.60
2018-11-23T02:02:58.698Z,39.07
2018-11-23T02:05:28.104Z,38.13
2018-11-23T02:07:57.367Z,39.27
2018-11-23T02:10:26.737Z,39.47
2018-11-23T02:12:56.357Z,24.13
2018-11-23T02:15:26.066Z,28.47
2018-11-23T02:17:55.923Z,34.00
2018-11-23T02:20:25.577Z,34.27
2018-11-23T02:22:54.965Z,38.97
2018-11-23T02:25:24.269Z,36.03
2018-11-23T02:27:53.643Z,39.53
2018-11-23T02:30:24.367Z,37.23
2018-11-23T02:32:53.982Z,35.90
2018-11-23T02:35:23.643Z,38.33
2018-11-23T02:37:53.455Z,42.80
2018-11-23T02:40:23.230Z,43.77
2018-11-23T02:42:52.559Z,40.57
2018-11-23T02:45:23.428Z,36.57
2018-11-23T02:47:52.931Z,35.90
2018-11-23T02:50:22.265Z,35.30
2018-11-23T02:52:51.561Z,34.87
2018-11-23T02:55:21.201Z,39.80
2018-11-23T02:57:50.580Z,34.67
2018-11-23T03:00:21.611Z,39.27
2018-11-23T03:02:51.414Z,39.97
2018-11-23T03:05:22.538Z,44.20
2018-11-23T03:07:51.981Z,35.97
2018-11-23T03:10:21.744Z,38.30
2018-11-23T03:12:52.122Z,41.70
2018-11-23T03:15:22.080Z,38.27
2018-11-23T03:17:51.884Z,36.57
2018-11-23T03:20:22.432Z,40.27
2018-11-23T03:22:52.138Z,38.13
2018-11-23T03:25:21.917Z,40.33
2018-11-23T03:27:51.427Z,34.00
2018-11-23T03:30:22.578Z,43.47
2018-11-23T03:32:52.736Z,38.03
2018-11-23T03:35:22.667Z,43.60
2018-11-23T03:37:52.448Z,38.47
2018-11-23T03:40:22.570Z,38.13
2018-11-23T03:42:52.344Z,41.83
2018-11-23T03:45:22.102Z,35.70
2018-11-23T03:47:51.946Z,41.37
2018-11-23T03:50:21.996Z,35.97
2018-11-23T03:52:51.971Z,38.53
2018-11-23T03:55:21.975Z,25.13
2018-11-23T03:57:52.490Z,34.43
2018-11-23T04:00:23.592Z,40.07
2018-11-23T04:02:53.424Z,33.80
2018-11-23T04:05:23.070Z,30.43
2018-11-23T04:07:52.335Z,40.87
2018-11-23T04:10:21.637Z,38.83
2018-11-23T04:12:51.471Z,33.60
2018-11-23T04:15:21.302Z,44.43
2018-11-23T04:17:51.204Z,35.70
2018-11-23T04:20:20.798Z,40.80
2018-11-23T04:22:51.021Z,42.97
2018-11-23T04:25:20.707Z,43.23
2018-11-23T04:27:50.073Z,39.17
2018-11-23T04:30:19.555Z,39.53
2018-11-23T04:32:49.383Z,36.73
2018-11-23T04:35:19.684Z,43.30
2018-11-23T04:37:49.493Z,36.33
2018-11-23T04:40:19.590Z,38.33
2018-11-23T04:42:48.905Z,36.67
2018-11-23T04:45:18.573Z,33.73
2018-11-23T04:47:48.294Z,42.40
2018-11-23T04:50:18.308Z,40.43
2018-11-23T04:52:47.886Z,42.20
2018-11-23T04:55:17.096Z,41.33
2018-11-23T04:57:47.280Z,39.13
2018-11-23T05:00:17.136Z,40.43
2018-11-23T05:02:48.117Z,31.13
2018-11-23T05:05:17.890Z,37.53
2018-11-23T05:07:47.814Z,35.23
2018-11-23T05:10:17.846Z,37.93
2018-11-23T05:12:47.216Z,39.33
2018-11-23T05:15:17.845Z,41.57
2018-11-23T05:17:47.598Z,38.07
2018-11-23T05:20:17.565Z,35.83
2018-11-23T05:22:47.116Z,37.77
2018-11-23T05:25:17.870Z,37.50
2018-11-23T05:27:47.071Z,41.33
2018-11-23T05:30:19.695Z,37.13
2018-11-23T05:32:48.937Z,40.93
2018-11-23T05:35:18.913Z,37.43
2018-11-23T05:37:48.187Z,40.10
2018-11-23T05:40:19.668Z,37.63
2018-11-23T05:42:50.005Z,35.30
2018-11-23T05:45:20.690Z,37.20
2018-11-23T05:47:50.376Z,36.13
2018-11-23T05:50:23.286Z,38.13
2018-11-23T05:52:53.190Z,39.87
2018-11-23T05:55:22.708Z,35.37
2018-11-23T05:57:52.451Z,36.23
2018-11-23T06:00:25.812Z,38.57
2018-11-23T06:02:55.458Z,37.43
2018-11-23T06:05:24.614Z,34.93
2018-11-23T06:07:53.768Z,37.47
2018-11-23T06:10:23.288Z,35.57
2018-11-23T06:12:52.410Z,36.73
2018-11-23T06:15:22.894Z,36.83
2018-11-23T06:17:52.110Z,33.87
2018-11-23T06:20:24.037Z,34.77
2018-11-23T06:22:53.713Z,36.47
2018-11-23T06:25:31.027Z,36.90
2018-11-23T06:28:00.087Z,39.73
2018-11-23T06:30:29.433Z,38.37
2018-11-23T06:33:09.616Z,37.67
2018-11-23T06:35:39.038Z,38.17
2018-11-23T06:38:08.174Z,37.60
2018-11-23T06:40:37.442Z,38.20
2018-11-23T06:43:06.762Z,38.30
2018-11-23T06:45:37.758Z,36.37
2018-11-23T06:48:07.604Z,33.47
2018-11-23T06:50:36.968Z,41.83
2018-11-23T06:53:06.741Z,36.60
2018-11-23T06:55:36.114Z,43.40
2018-11-23T06:58:05.996Z,37.97
2018-11-23T07:00:36.162Z,39.17
2018-11-23T07:03:06.424Z,36.47
2018-11-23T07:05:35.826Z,40.47
2018-11-23T07:08:05.994Z,36.53
2018-11-23T07:10:35.508Z,41.43
2018-11-23T07:13:05.494Z,40.43
2018-11-23T07:15:35.063Z,40.73
2018-11-23T07:18:05.408Z,38.77
2018-11-23T07:20:35.072Z,48.33
2018-11-23T07:23:05.190Z,44.57
2018-11-23T07:25:34.942Z,44.57
2018-11-23T07:28:04.771Z,40.83
2018-11-23T07:30:34.396Z,33.80
2018-11-23T07:33:04.404Z,39.47
2018-11-23T07:35:34.390Z,33.13
2018-11-23T07:38:04.189Z,38.80
2018-11-23T07:40:46.207Z,40.70
2018-11-23T07:43:15.824Z,43.57
2018-11-23T07:45:45.798Z,39.33
2018-11-23T07:48:15.502Z,40.73
2018-11-23T07:50:45.216Z,37.47
2018-11-23T07:53:15.203Z,30.43
2018-11-23T07:55:45.732Z,41.90
2018-11-23T07:58:15.390Z,43.13
2018-11-23T08:00:46.334Z,41.93
2018-11-23T08:03:17.660Z,42.97
2018-11-23T08:05:48.333Z,40.53
2018-11-23T08:08:17.898Z,41.07
2018-11-23T08:10:47.041Z,40.77
2018-11-23T08:13:17.453Z,48.57
2018-11-23T08:15:47.368Z,46.27
2018-11-23T08:18:17.570Z,38.77
2018-11-23T08:20:48.688Z,39.67
2018-11-23T08:23:18.525Z,39.67
2018-11-23T08:25:48.888Z,35.43
2018-11-23T08:28:18.826Z,38.87
2018-11-23T08:30:49.531Z,36.77
2018-11-23T08:33:20.246Z,38.17
2018-11-23T08:35:50.210Z,35.90
2018-11-23T08:38:20.262Z,43.47
2018-11-23T08:40:51.063Z,41.07
2018-11-23T08:43:21.128Z,39.03
2018-11-23T08:45:51.235Z,39.23
2018-11-23T08:48:20.940Z,37.67
2018-11-23T08:50:51.360Z,35.47
2018-11-23T08:53:27.870Z,34.57
2018-11-23T08:55:52.678Z,33.67
2018-11-23T08:58:23.113Z,32.70
2018-11-23T09:00:52.686Z,36.50
2018-11-23T09:03:22.424Z,33.47
2018-11-23T09:05:52.584Z,36.87
2018-11-23T09:08:22.224Z,35.43
2018-11-23T09:10:52.552Z,31.23
2018-11-23T09:13:22.625Z,40.30
2018-11-23T09:15:52.586Z,37.47
2018-11-23T09:18:22.319Z,34.60
2018-11-23T09:20:52.491Z,34.23
2018-11-23T09:23:23.637Z,38.53
2018-11-23T09:25:54.248Z,35.87
2018-11-23T09:28:23.844Z,38.63
2018-11-23T09:30:53.749Z,39.37
2018-11-23T09:33:23.206Z,35.57
2018-11-23T09:35:52.670Z,40.17
2018-11-23T09:38:22.529Z,35.03
2018-11-23T09:40:52.432Z,35.77
2018-11-23T09:43:22.469Z,34.47
2018-11-23T09:45:53.093Z,33.70
2018-11-23T09:48:22.727Z,37.50
2018-11-23T09:50:52.960Z,35.47
2018-11-23T09:53:22.651Z,36.43
2018-11-23T09:55:52.298Z,33.20
2018-11-23T09:58:22.113Z,33.20
2018-11-23T10:00:53.313Z,34.27
2018-11-23T10:03:23.793Z,32.80
2018-11-23T10:05:53.389Z,32.97
2018-11-23T10:08:23.598Z,29.83
2018-11-23T10:10:53.769Z,32.33
2018-11-23T10:13:23.457Z,32.07
2018-11-23T10:15:52.889Z,35.17
2018-11-23T10:18:23.041Z,31.87
2018-11-23T10:20:53.271Z,33.43
2018-11-23T10:23:22.819Z,35.43
2018-11-23T10:25:53.185Z,38.17
2018-11-23T10:28:22.721Z,30.40
2018-11-23T10:30:52.535Z,30.60
2018-11-23T10:33:22.866Z,32.37
2018-11-23T10:35:52.259Z,31.13
2018-11-23T10:38:22.007Z,30.13
2018-11-23T10:40:51.703Z,31.83
2018-11-23T10:43:21.267Z,29.97
2018-11-23T10:45:51.135Z,29.07
2018-11-23T10:48:20.575Z,33.87
2018-11-23T10:50:50.171Z,29.60
2018-11-23T10:53:20.224Z,29.93
2018-11-23T10:55:50.129Z,31.17
2018-11-23T10:58:19.981Z,27.23
2018-11-23T11:00:50.063Z,30.47
2018-11-23T11:03:34.263Z,30.00
2018-11-23T11:06:11.731Z,27.50
2018-11-23T11:08:42.361Z,26.60
2018-11-23T11:11:13.840Z,28.07
2018-11-23T11:13:42.183Z,27.00
2018-11-23T11:16:12.533Z,31.30
2018-11-23T11:18:43.302Z,26.60
2018-11-23T11:21:12.705Z,24.10
2018-11-23T11:23:42.410Z,24.10
2018-11-23T11:26:12.451Z,25.17
2018-11-23T11:28:42.513Z,26.50
2018-11-23T11:31:12.527Z,27.13
2018-11-23T11:33:43.111Z,26.87
2018-11-23T11:36:12.910Z,25.87
2018-11-23T11:38:42.614Z,26.43
2018-11-23T11:41:12.387Z,22.97
2018-11-23T11:43:42.514Z,24.43
2018-11-23T11:46:13.353Z,25.13
2018-11-23T11:48:42.769Z,25.30
2018-11-23T11:51:12.551Z,25.77
2018-11-23T11:53:42.395Z,27.07
2018-11-23T11:56:12.677Z,25.10
2018-11-23T11:58:43.838Z,25.57
2018-11-23T12:01:13.268Z,24.70
2018-11-23T12:03:43.109Z,27.83
2018-11-23T12:06:12.749Z,24.20
2018-11-23T12:08:42.679Z,24.23
2018-11-23T12:11:12.583Z,28.93
2018-11-23T12:13:42.407Z,27.50
2018-11-23T12:16:12.583Z,25.60
2018-11-23T12:18:42.410Z,27.30
2018-11-23T12:21:12.397Z,26.13
2018-11-23T12:23:42.356Z,27.87
2018-11-23T12:26:12.444Z,26.17
2018-11-23T12:28:42.201Z,25.97
2018-11-23T12:31:13.085Z,24.97
2018-11-23T12:33:43.011Z,25.43
2018-11-23T12:36:13.815Z,23.77
2018-11-23T12:38:43.903Z,24.67
2018-11-23T12:41:13.852Z,23.27
2018-11-23T12:43:43.547Z,25.83
2018-11-23T12:46:13.850Z,24.07
2018-11-23T12:48:44.006Z,25.07
2018-11-23T12:51:14.535Z,25.87
2018-11-23T12:53:44.692Z,22.87
2018-11-23T12:56:14.652Z,22.53
2018-11-23T12:58:45.130Z,22.43
2018-11-23T13:01:15.170Z,24.07
2018-11-23T13:03:44.916Z,24.20
2018-11-23T13:06:16.832Z,23.87
2018-11-23T13:08:47.108Z,23.27
2018-11-23T13:11:17.939Z,24.30
2018-11-23T13:13:48.980Z,23.27
2018-11-23T13:16:19.132Z,23.53
2018-11-23T13:18:49.840Z,23.87
2018-11-23T13:21:19.805Z,24.90
2018-11-23T13:23:50.291Z,21.93
2018-11-23T13:26:20.098Z,21.17
2018-11-23T13:28:51.364Z,22.63
2018-11-23T13:31:20.906Z,22.80
2018-11-23T13:33:50.372Z,22.30
2018-11-23T13:36:20.531Z,24.87
2018-11-23T13:38:51.370Z,25.13
2018-11-23T13:41:21.416Z,22.93
2018-11-23T13:43:51.999Z,25.10
2018-11-23T13:46:22.099Z,23.00
2018-11-23T13:48:53.325Z,25.87
2018-11-23T13:51:22.755Z,23.07
2018-11-23T13:53:52.477Z,23.67
2018-11-23T13:56:23.292Z,24.53
2018-11-23T13:58:53.750Z,23.70
2018-11-23T14:01:23.746Z,23.97
2018-11-23T14:03:54.473Z,24.70
2018-11-23T14:06:24.325Z,25.30
2018-11-23T14:08:54.776Z,25.87
2018-11-23T14:11:25.040Z,21.03
2018-11-23T14:13:55.281Z,24.00
2018-11-23T14:16:25.516Z,24.43
2018-11-23T14:18:55.764Z,24.13
2018-11-23T14:21:25.564Z,22.83
2018-11-23T14:23:55.219Z,22.67
2018-11-23T14:26:24.950Z,23.77
2018-11-23T14:28:55.294Z,22.50
2018-11-23T14:31:25.348Z,25.57
2018-11-23T14:33:55.079Z,26.83
2018-11-23T14:36:24.913Z,38.17
2018-11-23T14:38:54.766Z,25.07
2018-11-23T14:41:25.745Z,25.27
2018-11-23T14:43:55.562Z,23.37
2018-11-23T14:46:26.406Z,22.10
2018-11-23T14:48:56.525Z,22.07
2018-11-23T14:51:26.862Z,24.17
2018-11-23T14:53:56.716Z,86.63
2018-11-23T14:56:30.318Z,32.80
2018-11-23T14:58:59.956Z,31.27
2018-11-23T15:01:29.644Z,31.80
2018-11-23T15:03:59.936Z,28.60
2018-11-23T15:06:30.053Z,22.50
2018-11-23T15:09:00.913Z,21.73
2018-11-23T15:11:30.413Z,24.10
2018-11-23T15:14:00.595Z,25.63
2018-11-23T15:16:30.285Z,29.67
2018-11-23T15:18:59.591Z,27.67
2018-11-23T15:21:29.019Z,25.23
2018-11-23T15:24:00.845Z,22.57
2018-11-23T15:26:27.696Z,21.67
2018-11-23T15:28:56.976Z,23.17
2018-11-23T15:31:26.455Z,24.23
2018-11-23T15:33:55.953Z,24.37
2018-11-23T15:36:25.835Z,27.83
2018-11-23T15:38:54.959Z,29.10
2018-11-23T15:41:24.110Z,22.60
2018-11-23T15:43:53.228Z,21.20
2018-11-23T15:46:22.892Z,23.67
2018-11-23T15:48:52.042Z,23.50
2018-11-23T15:51:21.135Z,23.37
2018-11-23T15:53:50.356Z,21.80
2018-11-23T15:56:20.264Z,20.83
2018-11-23T15:58:49.877Z,22.30
2018-11-23T16:01:19.397Z,23.00
2018-11-23T16:03:48.939Z,22.97
2018-11-23T16:06:18.304Z,24.43
2018-11-23T16:08:47.595Z,22.70
2018-11-23T16:11:17.254Z,21.43
2018-11-23T16:13:46.893Z,25.20
2018-11-23T16:16:16.178Z,25.23
2018-11-23T16:18:45.480Z,23.70
2018-11-23T16:21:14.865Z,25.83
2018-11-23T16:23:44.205Z,26.00
2018-11-23T16:26:13.424Z,22.90
2018-11-23T16:28:42.709Z,23.43
2018-11-23T16:31:13.273Z,23.93
2018-11-23T16:33:43.180Z,25.13
2018-11-23T16:36:12.733Z,23.60
2018-11-23T16:38:42.362Z,22.80
2018-11-23T16:41:11.615Z,21.07
2018-11-23T16:43:41.174Z,20.80
2018-11-23T16:46:10.912Z,22.17
2018-11-23T16:48:40.095Z,21.53
2018-11-23T16:51:09.509Z,20.53
2018-11-23T16:53:38.694Z,21.40
2018-11-23T16:56:07.935Z,22.23
2018-11-23T16:58:37.160Z,20.23
2018-11-23T17:01:06.551Z,20.37
2018-11-23T17:03:35.858Z,22.37
2018-11-23T17:06:05.412Z,22.43
2018-11-23T17:08:39.630Z,25.30
2018-11-23T17:11:04.507Z,21.50
2018-11-23T17:13:34.430Z,23.70
2018-11-23T17:16:03.887Z,22.87
2018-11-23T17:18:33.875Z,22.63
2018-11-23T17:21:03.798Z,23.33
2018-11-23T17:23:33.877Z,22.60
2018-11-23T17:26:03.273Z,21.73
2018-11-23T17:28:32.971Z,20.87
2018-11-23T17:31:09.017Z,22.27
2018-11-23T17:33:38.605Z,22.17
2018-11-23T17:36:08.533Z,22.40
2018-11-23T17:38:46.825Z,23.47
2018-11-23T17:41:07.617Z,22.63
2018-11-23T17:43:37.273Z,21.50
2018-11-23T17:46:06.888Z,22.83
2018-11-23T17:48:36.442Z,21.67
2018-11-23T17:51:06.405Z,21.87
2018-11-23T17:53:35.797Z,22.37
2018-11-23T17:56:05.701Z,23.17
2018-11-23T17:58:35.111Z,22.93
2018-11-23T18:01:06.345Z,21.60
2018-11-23T18:03:35.473Z,23.17
2018-11-23T18:06:04.666Z,23.00
2018-11-23T18:08:38.620Z,23.63
2018-11-23T18:11:04.117Z,22.47
2018-11-23T18:13:33.369Z,22.67
2018-11-23T18:16:02.808Z,22.23
2018-11-23T18:18:32.568Z,23.77
2018-11-23T18:21:02.050Z,23.13
2018-11-23T18:23:31.307Z,23.13
2018-11-23T18:26:00.799Z,23.90
2018-11-23T18:28:30.329Z,25.87
2018-11-23T18:30:59.852Z,25.23
2018-11-23T18:33:29.545Z,24.90
2018-11-23T18:35:59.238Z,29.43
2018-11-23T18:38:28.943Z,25.73
2018-11-23T18:40:59.383Z,23.57
2018-11-23T18:43:29.546Z,23.97
2018-11-23T18:45:59.101Z,23.13
2018-11-23T18:48:28.937Z,26.63
2018-11-23T18:50:58.501Z,24.47
2018-11-23T18:53:27.727Z,24.97
2018-11-23T18:55:57.675Z,24.37
2018-11-23T18:58:27.121Z,25.57
2018-11-23T19:00:56.880Z,24.67
2018-11-23T19:03:26.195Z,25.70
2018-11-23T19:05:56.305Z,26.30
2018-11-23T19:08:26.913Z,25.97
2018-11-23T19:10:56.216Z,25.70
2018-11-23T19:13:25.545Z,26.17
2018-11-23T19:15:55.284Z,24.80
2018-11-23T19:18:25.279Z,23.23
2018-11-23T19:20:54.907Z,21.33
2018-11-23T19:23:25.414Z,22.10
2018-11-23T19:25:54.864Z,23.70
2018-11-23T19:28:24.379Z,23.37
2018-11-23T19:30:53.824Z,23.83
2018-11-23T19:33:23.394Z,23.43
2018-11-23T19:35:56.242Z,21.73
2018-11-23T19:38:27.546Z,23.33
2018-11-23T19:40:56.971Z,22.90
2018-11-23T19:43:27.133Z,21.80
2018-11-23T19:45:56.930Z,24.27
2018-11-23T19:48:26.732Z,25.20
2018-11-23T19:50:56.266Z,26.07
2018-11-23T19:53:25.953Z,22.27
2018-11-23T19:55:56.116Z,23.33
2018-11-23T19:58:25.757Z,22.50
2018-11-23T20:00:55.640Z,21.33
2018-11-23T20:03:25.106Z,22.20
2018-11-23T20:05:55.194Z,23.33
2018-11-23T20:08:25.100Z,21.73
2018-11-23T20:10:54.493Z,22.20
2018-11-23T20:13:23.809Z,21.13
2018-11-23T20:15:53.202Z,21.97
2018-11-23T20:18:22.727Z,23.30
2018-11-23T20:20:54.168Z,24.13
2018-11-23T20:23:24.758Z,23.30
2018-11-23T20:25:54.175Z,22.83
2018-11-23T20:28:23.800Z,23.53
2018-11-23T20:30:53.108Z,22.97
2018-11-23T20:33:22.852Z,21.23
2018-11-23T20:35:52.516Z,21.47
2018-11-23T20:38:22.774Z,24.40
2018-11-23T20:40:52.380Z,22.30
2018-11-23T20:43:22.222Z,20.77
2018-11-23T20:45:51.987Z,23.07
2018-11-23T20:48:21.878Z,23.77
2018-11-23T20:50:51.298Z,23.50
2018-11-23T20:53:20.602Z,25.83
2018-11-23T20:55:49.981Z,23.57
2018-11-23T20:58:19.208Z,28.77
2018-11-23T21:00:49.190Z,25.50
2018-11-23T21:03:19.266Z,26.73
2018-11-23T21:05:49.699Z,24.37
2018-11-23T21:08:19.285Z,23.67
2018-11-23T21:10:48.658Z,27.13
2018-11-23T21:13:17.898Z,31.27
2018-11-23T21:15:47.416Z,31.07
2018-11-23T21:18:17.100Z,27.27
2018-11-23T21:20:46.464Z,26.77
2018-11-23T21:23:16.105Z,25.53
2018-11-23T21:25:45.688Z,24.93
2018-11-23T21:28:15.088Z,26.17
2018-11-23T21:30:44.946Z,26.97
2018-11-23T21:33:14.176Z,24.83
2018-11-23T21:35:43.813Z,24.67
2018-11-23T21:38:13.618Z,25.63
2018-11-23T21:40:44.496Z,23.00
2018-11-23T21:43:12.781Z,22.40
2018-11-23T21:45:43.289Z,22.73
2018-11-23T21:48:15.324Z,26.53
2018-11-23T21:50:48.680Z,26.30
2018-11-23T21:53:18.791Z,26.27
2018-11-23T21:55:48.157Z,26.57
2018-11-23T21:58:17.892Z,24.90
2018-11-23T22:00:47.855Z,24.03
2018-11-23T22:03:17.598Z,24.90
2018-11-23T22:05:47.261Z,26.10
2018-11-23T22:08:16.961Z,25.60
2018-11-23T22:10:47.139Z,29.43
2018-11-23T22:13:17.576Z,25.60
2018-11-23T22:15:49.183Z,26.63
2018-11-23T22:18:40.887Z,26.03
2018-11-23T22:21:10.783Z,26.43
2018-11-23T22:23:40.236Z,26.90
2018-11-23T22:26:09.648Z,27.33
2018-11-23T22:28:39.272Z,28.33
2018-11-23T22:31:08.614Z,27.33
2018-11-23T22:33:38.327Z,26.90
2018-11-23T22:36:07.456Z,26.53
2018-11-23T22:38:37.470Z,27.93
2018-11-23T22:41:06.810Z,25.60
2018-11-23T22:43:36.680Z,28.17
2018-11-23T22:46:07.090Z,28.50
2018-11-23T22:48:37.083Z,28.83
2018-11-23T22:51:07.289Z,27.30
2018-11-23T22:53:36.812Z,27.23
2018-11-23T22:56:06.550Z,26.67
2018-11-23T22:58:36.144Z,27.63
2018-11-23T23:01:06.065Z,26.30
2018-11-23T23:03:35.830Z,25.83
2018-11-23T23:06:05.647Z,27.07
2018-11-23T23:08:34.932Z,27.90
2018-11-23T23:11:05.185Z,29.23
2018-11-23T23:13:35.662Z,27.83
2018-11-23T23:16:05.648Z,29.60
2018-11-23T23:18:35.639Z,25.10
2018-11-23T23:21:05.305Z,26.07
2018-11-23T23:23:35.255Z,27.63
2018-11-23T23:26:05.229Z,30.33
2018-11-23T23:28:34.612Z,26.80
2018-11-23T23:31:03.999Z,25.30
2018-11-23T23:33:34.851Z,27.37
2018-11-23T23:36:04.539Z,27.50
2018-11-23T23:38:34.039Z,28.00
2018-11-23T23:41:03.802Z,24.90
2018-11-23T23:43:33.829Z,27.00
2018-11-23T23:46:03.931Z,27.00
2018-11-23T23:48:34.013Z,26.37
2018-11-23T23:51:04.007Z,29.70
2018-11-23T23:53:33.570Z,28.93
2018-11-23T23:56:03.079Z,27.87
2018-11-23T23:58:32.795Z,25.63
